sensor_id;sensor_type;location;lat;lon;timestamp;P1;durP1;ratioP1;P2;durP2;ratioP2
3211;SDS011;1618;47.056;15.472;2023-10-13T00:00:27;17.50;;;16.70;;
3211;SDS011;1618;47.056;15.472;2023-10-13T00:03:00;17.90;;;17.10;;
3211;SDS011;1618;47.056;15.472;2023-10-13T00:05:31;17.90;;;17.10;;
3211;SDS011;1618;47.056;15.472;2023-10-13T00:07:59;17.70;;;16.90;;
3211;SDS011;1618;47.056;15.472;2023-10-13T00:10:28;17.70;;;16.90;;
3211;SDS011;1618;47.056;15.472;2023-10-13T00:13:00;18.17;;;17.37;;
3211;SDS011;1618;47.056;15.472;2023-10-13T00:15:42;18.37;;;17.57;;
3211;SDS011;1618;47.056;15.472;2023-10-13T00:18:22;18.00;;;17.20;;
3211;SDS011;1618;47.056;15.472;2023-10-13T00:20:51;18.17;;;17.30;;
3211;SDS011;1618;47.056;15.472;2023-10-13T00:23:22;17.87;;;17.07;;
3211;SDS011;1618;47.056;15.472;2023-10-13T00:25:52;16.90;;;16.10;;
3211;SDS011;1618;47.056;15.472;2023-10-13T00:28:28;17.70;;;16.90;;
3211;SDS011;1618;47.056;15.472;2023-10-13T00:31:10;18.03;;;17.20;;
3211;SDS011;1618;47.056;15.472;2023-10-13T00:33:39;16.80;;;16.00;;
3211;SDS011;1618;47.056;15.472;2023-10-13T00:36:08;18.00;;;17.17;;
3211;SDS011;1618;47.056;15.472;2023-10-13T00:38:44;17.60;;;16.80;;
3211;SDS011;1618;47.056;15.472;2023-10-13T00:41:13;17.40;;;16.60;;
3211;SDS011;1618;47.056;15.472;2023-10-13T00:43:45;20.00;;;19.10;;
3211;SDS011;1618;47.056;15.472;2023-10-13T00:46:31;17.67;;;16.87;;
3211;SDS011;1618;47.056;15.472;2023-10-13T00:49:00;18.33;;;17.43;;
3211;SDS011;1618;47.056;15.472;2023-10-13T00:51:29;18.03;;;17.23;;
3211;SDS011;1618;47.056;15.472;2023-10-13T00:54:03;18.80;;;17.90;;
3211;SDS011;1618;47.056;15.472;2023-10-13T00:56:39;20.07;;;19.07;;
3211;SDS011;1618;47.056;15.472;2023-10-13T00:59:12;19.57;;;18.67;;
3211;SDS011;1618;47.056;15.472;2023-10-13T01:01:44;19.03;;;18.13;;
3211;SDS011;1618;47.056;15.472;2023-10-13T01:04:15;19.60;;;18.63;;
3211;SDS011;1618;47.056;15.472;2023-10-13T01:06:44;19.03;;;18.13;;
3211;SDS011;1618;47.056;15.472;2023-10-13T01:09:13;20.00;;;19.00;;
3211;SDS011;1618;47.056;15.472;2023-10-13T01:11:44;18.63;;;17.73;;
3211;SDS011;1618;47.056;15.472;2023-10-13T01:14:17;18.70;;;17.80;;
3211;SDS011;1618;47.056;15.472;2023-10-13T01:16:47;18.17;;;17.30;;
3211;SDS011;1618;47.056;15.472;2023-10-13T01:19:18;17.63;;;16.80;;
3211;SDS011;1618;47.056;15.472;2023-10-13T01:21:51;19.00;;;18.10;;
3211;SDS011;1618;47.056;15.472;2023-10-13T01:24:24;17.90;;;17.00;;
3211;SDS011;1618;47.056;15.472;2023-10-13T01:26:57;17.90;;;17.10;;
3211;SDS011;1618;47.056;15.472;2023-10-13T01:29:38;17.80;;;17.00;;
3211;SDS011;1618;47.056;15.472;2023-10-13T01:32:05;16.50;;;15.70;;
3211;SDS011;1618;47.056;15.472;2023-10-13T01:34:38;17.20;;;16.40;;
3211;SDS011;1618;47.056;15.472;2023-10-13T01:37:06;17.30;;;16.50;;
3211;SDS011;1618;47.056;15.472;2023-10-13T01:39:38;17.20;;;16.40;;
3211;SDS011;1618;47.056;15.472;2023-10-13T01:42:05;17.23;;;16.43;;
3211;SDS011;1618;47.056;15.472;2023-10-13T01:44:38;17.60;;;16.80;;
3211;SDS011;1618;47.056;15.472;2023-10-13T01:47:04;17.37;;;16.57;;
3211;SDS011;1618;47.056;15.472;2023-10-13T01:49:33;16.73;;;15.93;;
3211;SDS011;1618;47.056;15.472;2023-10-13T01:52:06;17.87;;;17.07;;
3211;SDS011;1618;47.056;15.472;2023-10-13T01:54:41;17.80;;;17.00;;
3211;SDS011;1618;47.056;15.472;2023-10-13T01:57:13;18.10;;;17.30;;
3211;SDS011;1618;47.056;15.472;2023-10-13T01:59:40;17.40;;;16.60;;
3211;SDS011;1618;47.056;15.472;2023-10-13T02:02:09;18.87;;;17.97;;
3211;SDS011;1618;47.056;15.472;2023-10-13T02:04:37;20.00;;;19.10;;
3211;SDS011;1618;47.056;15.472;2023-10-13T02:07:15;19.97;;;18.97;;
3211;SDS011;1618;47.056;15.472;2023-10-13T02:09:44;19.70;;;18.80;;
3211;SDS011;1618;47.056;15.472;2023-10-13T02:12:14;19.37;;;18.47;;
3211;SDS011;1618;47.056;15.472;2023-10-13T02:14:42;19.93;;;19.00;;
3211;SDS011;1618;47.056;15.472;2023-10-13T02:17:11;19.93;;;19.03;;
3211;SDS011;1618;47.056;15.472;2023-10-13T02:19:38;19.10;;;18.20;;
3211;SDS011;1618;47.056;15.472;2023-10-13T02:22:09;18.60;;;17.70;;
3211;SDS011;1618;47.056;15.472;2023-10-13T02:24:38;19.60;;;18.70;;
3211;SDS011;1618;47.056;15.472;2023-10-13T02:27:07;19.30;;;18.40;;
3211;SDS011;1618;47.056;15.472;2023-10-13T02:29:38;19.00;;;18.10;;
3211;SDS011;1618;47.056;15.472;2023-10-13T02:32:05;19.10;;;18.20;;
3211;SDS011;1618;47.056;15.472;2023-10-13T02:34:38;19.03;;;18.13;;
3211;SDS011;1618;47.056;15.472;2023-10-13T02:37:09;18.87;;;17.97;;
3211;SDS011;1618;47.056;15.472;2023-10-13T02:39:38;19.37;;;18.47;;
3211;SDS011;1618;47.056;15.472;2023-10-13T02:42:09;19.40;;;18.50;;
3211;SDS011;1618;47.056;15.472;2023-10-13T02:44:48;20.27;;;19.27;;
3211;SDS011;1618;47.056;15.472;2023-10-13T02:47:14;20.40;;;19.40;;
3211;SDS011;1618;47.056;15.472;2023-10-13T02:49:44;19.53;;;18.63;;
3211;SDS011;1618;47.056;15.472;2023-10-13T02:52:13;20.13;;;19.13;;
3211;SDS011;1618;47.056;15.472;2023-10-13T02:54:42;20.30;;;19.30;;
3211;SDS011;1618;47.056;15.472;2023-10-13T02:57:15;20.10;;;19.10;;
3211;SDS011;1618;47.056;15.472;2023-10-13T02:59:43;19.73;;;18.83;;
3211;SDS011;1618;47.056;15.472;2023-10-13T03:02:12;19.53;;;18.63;;
3211;SDS011;1618;47.056;15.472;2023-10-13T03:04:50;19.77;;;18.87;;
3211;SDS011;1618;47.056;15.472;2023-10-13T03:07:17;19.70;;;18.80;;
3211;SDS011;1618;47.056;15.472;2023-10-13T03:09:48;19.60;;;18.70;;
3211;SDS011;1618;47.056;15.472;2023-10-13T03:12:18;20.13;;;19.20;;
3211;SDS011;1618;47.056;15.472;2023-10-13T03:14:48;19.80;;;18.90;;
3211;SDS011;1618;47.056;15.472;2023-10-13T03:17:38;18.67;;;17.77;;
3211;SDS011;1618;47.056;15.472;2023-10-13T03:20:09;18.20;;;17.40;;
3211;SDS011;1618;47.056;15.472;2023-10-13T03:22:37;18.40;;;17.50;;
3211;SDS011;1618;47.056;15.472;2023-10-13T03:25:04;18.50;;;17.70;;
3211;SDS011;1618;47.056;15.472;2023-10-13T03:27:33;18.23;;;17.43;;
3211;SDS011;1618;47.056;15.472;2023-10-13T03:30:28;18.60;;;17.70;;
3211;SDS011;1618;47.056;15.472;2023-10-13T03:33:05;18.00;;;17.20;;
3211;SDS011;1618;47.056;15.472;2023-10-13T03:35:35;18.50;;;17.70;;
3211;SDS011;1618;47.056;15.472;2023-10-13T03:38:07;18.80;;;17.90;;
3211;SDS011;1618;47.056;15.472;2023-10-13T03:40:44;17.97;;;17.17;;
3211;SDS011;1618;47.056;15.472;2023-10-13T03:43:16;17.30;;;16.50;;
3211;SDS011;1618;47.056;15.472;2023-10-13T03:45:48;17.50;;;16.70;;
3211;SDS011;1618;47.056;15.472;2023-10-13T03:48:19;17.00;;;16.20;;
3211;SDS011;1618;47.056;15.472;2023-10-13T03:50:55;16.80;;;16.10;;
3211;SDS011;1618;47.056;15.472;2023-10-13T03:53:33;15.90;;;15.20;;
3211;SDS011;1618;47.056;15.472;2023-10-13T03:56:02;16.57;;;15.87;;
3211;SDS011;1618;47.056;15.472;2023-10-13T03:58:41;17.77;;;16.97;;
3211;SDS011;1618;47.056;15.472;2023-10-13T04:01:12;18.03;;;17.23;;
3211;SDS011;1618;47.056;15.472;2023-10-13T04:03:43;18.40;;;17.50;;
3211;SDS011;1618;47.056;15.472;2023-10-13T04:06:29;15.38;;;14.68;;
3211;SDS011;1618;47.056;15.472;2023-10-13T04:09:13;18.10;;;17.30;;
3211;SDS011;1618;47.056;15.472;2023-10-13T04:11:58;18.73;;;17.83;;
3211;SDS011;1618;47.056;15.472;2023-10-13T04:14:44;18.80;;;17.90;;
3211;SDS011;1618;47.056;15.472;2023-10-13T04:17:31;17.90;;;17.00;;
3211;SDS011;1618;47.056;15.472;2023-10-13T04:20:06;18.50;;;17.60;;
3211;SDS011;1618;47.056;15.472;2023-10-13T04:22:52;17.93;;;17.03;;
3211;SDS011;1618;47.056;15.472;2023-10-13T04:25:36;18.50;;;17.60;;
3211;SDS011;1618;47.056;15.472;2023-10-13T04:28:18;18.40;;;17.50;;
3211;SDS011;1618;47.056;15.472;2023-10-13T04:31:00;18.50;;;17.60;;
3211;SDS011;1618;47.056;15.472;2023-10-13T04:33:37;18.70;;;17.80;;
3211;SDS011;1618;47.056;15.472;2023-10-13T04:36:18;18.50;;;17.60;;
3211;SDS011;1618;47.056;15.472;2023-10-13T04:39:10;18.37;;;17.47;;
3211;SDS011;1618;47.056;15.472;2023-10-13T04:41:42;17.90;;;17.00;;
3211;SDS011;1618;47.056;15.472;2023-10-13T04:44:23;17.20;;;16.40;;
3211;SDS011;1618;47.056;15.472;2023-10-13T04:47:10;17.30;;;16.50;;
3211;SDS011;1618;47.056;15.472;2023-10-13T04:49:46;17.60;;;16.80;;
3211;SDS011;1618;47.056;15.472;2023-10-13T04:52:19;17.33;;;16.53;;
3211;SDS011;1618;47.056;15.472;2023-10-13T04:55:28;17.10;;;16.30;;
3211;SDS011;1618;47.056;15.472;2023-10-13T04:58:13;16.93;;;16.13;;
3211;SDS011;1618;47.056;15.472;2023-10-13T05:01:03;19.50;;;18.60;;
3211;SDS011;1618;47.056;15.472;2023-10-13T05:03:52;19.60;;;18.70;;
3211;SDS011;1618;47.056;15.472;2023-10-13T05:06:42;19.00;;;18.20;;
3211;SDS011;1618;47.056;15.472;2023-10-13T05:09:27;18.70;;;17.90;;
3211;SDS011;1618;47.056;15.472;2023-10-13T05:12:12;18.30;;;17.50;;
3211;SDS011;1618;47.056;15.472;2023-10-13T05:14:56;19.37;;;18.47;;
3211;SDS011;1618;47.056;15.472;2023-10-13T05:17:41;19.30;;;18.40;;
3211;SDS011;1618;47.056;15.472;2023-10-13T05:20:27;19.80;;;18.90;;
3211;SDS011;1618;47.056;15.472;2023-10-13T05:23:16;19.60;;;18.70;;
3211;SDS011;1618;47.056;15.472;2023-10-13T05:26:02;18.40;;;17.60;;
3211;SDS011;1618;47.056;15.472;2023-10-13T05:29:17;18.10;;;17.30;;
3211;SDS011;1618;47.056;15.472;2023-10-13T05:32:18;18.13;;;17.33;;
3211;SDS011;1618;47.056;15.472;2023-10-13T05:35:04;16.00;;;15.30;;
3211;SDS011;1618;47.056;15.472;2023-10-13T05:37:53;16.50;;;15.80;;
3211;SDS011;1618;47.056;15.472;2023-10-13T05:40:54;16.70;;;16.00;;
3211;SDS011;1618;47.056;15.472;2023-10-13T05:43:42;15.40;;;14.70;;
3211;SDS011;1618;47.056;15.472;2023-10-13T05:46:27;16.80;;;16.10;;
3211;SDS011;1618;47.056;15.472;2023-10-13T05:49:14;16.97;;;16.17;;
3211;SDS011;1618;47.056;15.472;2023-10-13T05:52:12;17.10;;;16.30;;
3211;SDS011;1618;47.056;15.472;2023-10-13T05:55:14;15.73;;;15.03;;
3211;SDS011;1618;47.056;15.472;2023-10-13T05:58:01;16.00;;;15.30;;
3211;SDS011;1618;47.056;15.472;2023-10-13T06:00:45;17.37;;;16.57;;
3211;SDS011;1618;47.056;15.472;2023-10-13T06:03:38;18.37;;;17.57;;
3211;SDS011;1618;47.056;15.472;2023-10-13T06:06:25;17.93;;;17.13;;
3211;SDS011;1618;47.056;15.472;2023-10-13T06:09:18;19.17;;;18.27;;
3211;SDS011;1618;47.056;15.472;2023-10-13T06:12:22;18.40;;;17.60;;
3211;SDS011;1618;47.056;15.472;2023-10-13T06:15:09;18.77;;;17.87;;
3211;SDS011;1618;47.056;15.472;2023-10-13T06:18:00;19.53;;;18.63;;
3211;SDS011;1618;47.056;15.472;2023-10-13T06:20:47;21.10;;;20.10;;
3211;SDS011;1618;47.056;15.472;2023-10-13T06:23:32;22.83;;;21.73;;
3211;SDS011;1618;47.056;15.472;2023-10-13T06:26:20;22.70;;;21.60;;
3211;SDS011;1618;47.056;15.472;2023-10-13T06:29:11;22.60;;;21.50;;
3211;SDS011;1618;47.056;15.472;2023-10-13T06:31:44;21.93;;;20.93;;
3211;SDS011;1618;47.056;15.472;2023-10-13T06:34:14;22.43;;;21.33;;
3211;SDS011;1618;47.056;15.472;2023-10-13T06:36:53;22.30;;;21.20;;
3211;SDS011;1618;47.056;15.472;2023-10-13T06:39:25;22.40;;;21.30;;
3211;SDS011;1618;47.056;15.472;2023-10-13T06:42:03;23.40;;;22.30;;
3211;SDS011;1618;47.056;15.472;2023-10-13T06:44:34;23.27;;;22.07;;
3211;SDS011;1618;47.056;15.472;2023-10-13T06:47:05;25.00;;;23.70;;
3211;SDS011;1618;47.056;15.472;2023-10-13T06:49:33;25.97;;;24.67;;
3211;SDS011;1618;47.056;15.472;2023-10-13T06:52:11;26.77;;;25.37;;
3211;SDS011;1618;47.056;15.472;2023-10-13T06:54:40;25.80;;;24.50;;
3211;SDS011;1618;47.056;15.472;2023-10-13T06:57:09;25.67;;;24.37;;
3211;SDS011;1618;47.056;15.472;2023-10-13T06:59:40;25.03;;;23.73;;
3211;SDS011;1618;47.056;15.472;2023-10-13T07:02:13;25.20;;;23.90;;
3211;SDS011;1618;47.056;15.472;2023-10-13T07:04:49;25.10;;;23.80;;
3211;SDS011;1618;47.056;15.472;2023-10-13T07:07:29;25.90;;;24.50;;
3211;SDS011;1618;47.056;15.472;2023-10-13T07:10:11;27.70;;;26.30;;
3211;SDS011;1618;47.056;15.472;2023-10-13T07:12:54;27.30;;;25.90;;
3211;SDS011;1618;47.056;15.472;2023-10-13T07:15:33;27.30;;;25.90;;
3211;SDS011;1618;47.056;15.472;2023-10-13T07:18:20;26.93;;;25.53;;
3211;SDS011;1618;47.056;15.472;2023-10-13T07:20:56;27.40;;;26.00;;
3211;SDS011;1618;47.056;15.472;2023-10-13T07:23:36;26.90;;;25.50;;
3211;SDS011;1618;47.056;15.472;2023-10-13T07:26:11;27.20;;;25.80;;
3211;SDS011;1618;47.056;15.472;2023-10-13T07:28:39;27.00;;;25.60;;
3211;SDS011;1618;47.056;15.472;2023-10-13T07:34:07;27.97;;;26.47;;
3211;SDS011;1618;47.056;15.472;2023-10-13T07:36:51;28.70;;;27.20;;
3211;SDS011;1618;47.056;15.472;2023-10-13T07:39:28;26.80;;;25.40;;
3211;SDS011;1618;47.056;15.472;2023-10-13T07:42:00;27.30;;;25.80;;
3211;SDS011;1618;47.056;15.472;2023-10-13T07:44:33;27.70;;;26.20;;
3211;SDS011;1618;47.056;15.472;2023-10-13T07:47:02;26.07;;;24.67;;
3211;SDS011;1618;47.056;15.472;2023-10-13T07:49:44;27.87;;;26.37;;
3211;SDS011;1618;47.056;15.472;2023-10-13T07:52:17;28.47;;;26.97;;
3211;SDS011;1618;47.056;15.472;2023-10-13T07:55:02;26.83;;;25.43;;
3211;SDS011;1618;47.056;15.472;2023-10-13T07:57:49;27.90;;;26.30;;
3211;SDS011;1618;47.056;15.472;2023-10-13T08:00:29;28.40;;;26.70;;
3211;SDS011;1618;47.056;15.472;2023-10-13T08:03:16;30.43;;;28.63;;
3211;SDS011;1618;47.056;15.472;2023-10-13T08:06:16;29.60;;;27.80;;
3211;SDS011;1618;47.056;15.472;2023-10-13T08:08:54;30.90;;;29.00;;
3211;SDS011;1618;47.056;15.472;2023-10-13T08:11:37;29.70;;;27.80;;
3211;SDS011;1618;47.056;15.472;2023-10-13T08:14:05;31.30;;;29.20;;
3211;SDS011;1618;47.056;15.472;2023-10-13T08:16:52;31.63;;;29.43;;
3211;SDS011;1618;47.056;15.472;2023-10-13T08:19:25;30.00;;;27.90;;
3211;SDS011;1618;47.056;15.472;2023-10-13T08:21:59;31.13;;;28.93;;
3211;SDS011;1618;47.056;15.472;2023-10-13T08:24:57;31.33;;;29.13;;
3211;SDS011;1618;47.056;15.472;2023-10-13T08:27:45;31.40;;;29.10;;
3211;SDS011;1618;47.056;15.472;2023-10-13T08:30:44;30.60;;;28.30;;
3211;SDS011;1618;47.056;15.472;2023-10-13T08:33:19;30.80;;;28.50;;
3211;SDS011;1618;47.056;15.472;2023-10-13T08:35:49;30.73;;;28.33;;
3211;SDS011;1618;47.056;15.472;2023-10-13T08:38:55;30.57;;;28.27;;
3211;SDS011;1618;47.056;15.472;2023-10-13T08:41:29;30.20;;;27.80;;
3211;SDS011;1618;47.056;15.472;2023-10-13T08:44:05;30.93;;;28.53;;
3211;SDS011;1618;47.056;15.472;2023-10-13T08:46:34;30.90;;;28.40;;
3211;SDS011;1618;47.056;15.472;2023-10-13T08:49:38;31.20;;;28.70;;
3211;SDS011;1618;47.056;15.472;2023-10-13T08:52:10;30.90;;;28.30;;
3211;SDS011;1618;47.056;15.472;2023-10-13T08:54:55;31.33;;;28.73;;
3211;SDS011;1618;47.056;15.472;2023-10-13T08:57:50;31.30;;;28.70;;
3211;SDS011;1618;47.056;15.472;2023-10-13T09:00:35;30.67;;;28.17;;
3211;SDS011;1618;47.056;15.472;2023-10-13T09:03:22;31.00;;;28.40;;
3211;SDS011;1618;47.056;15.472;2023-10-13T09:06:04;31.40;;;28.70;;
3211;SDS011;1618;47.056;15.472;2023-10-13T09:08:32;31.10;;;28.40;;
3211;SDS011;1618;47.056;15.472;2023-10-13T09:11:20;30.90;;;28.20;;
3211;SDS011;1618;47.056;15.472;2023-10-13T09:13:52;31.03;;;28.43;;
3211;SDS011;1618;47.056;15.472;2023-10-13T09:16:25;31.10;;;28.40;;
3211;SDS011;1618;47.056;15.472;2023-10-13T09:19:06;31.50;;;28.80;;
3211;SDS011;1618;47.056;15.472;2023-10-13T09:21:39;31.17;;;28.67;;
3211;SDS011;1618;47.056;15.472;2023-10-13T09:24:19;31.00;;;28.47;;
3211;SDS011;1618;47.056;15.472;2023-10-13T09:26:57;31.30;;;28.60;;
3211;SDS011;1618;47.056;15.472;2023-10-13T09:29:37;31.70;;;28.90;;
3211;SDS011;1618;47.056;15.472;2023-10-13T09:32:07;31.00;;;28.30;;
3211;SDS011;1618;47.056;15.472;2023-10-13T09:34:38;31.63;;;28.90;;
3211;SDS011;1618;47.056;15.472;2023-10-13T09:37:09;31.70;;;28.90;;
3211;SDS011;1618;47.056;15.472;2023-10-13T09:39:43;32.30;;;29.50;;
3211;SDS011;1618;47.056;15.472;2023-10-13T09:42:22;32.30;;;29.40;;
3211;SDS011;1618;47.056;15.472;2023-10-13T09:44:52;33.00;;;30.10;;
3211;SDS011;1618;47.056;15.472;2023-10-13T09:47:24;34.40;;;31.40;;
3211;SDS011;1618;47.056;15.472;2023-10-13T09:50:01;35.30;;;32.10;;
3211;SDS011;1618;47.056;15.472;2023-10-13T09:52:31;35.53;;;32.30;;
3211;SDS011;1618;47.056;15.472;2023-10-13T09:55:12;36.67;;;33.27;;
3211;SDS011;1618;47.056;15.472;2023-10-13T09:57:45;35.60;;;32.20;;
3211;SDS011;1618;47.056;15.472;2023-10-13T10:00:15;36.60;;;33.20;;
3211;SDS011;1618;47.056;15.472;2023-10-13T10:03:00;36.70;;;33.30;;
3211;SDS011;1618;47.056;15.472;2023-10-13T10:05:41;36.53;;;33.13;;
3211;SDS011;1618;47.056;15.472;2023-10-13T10:08:23;37.30;;;33.90;;
3211;SDS011;1618;47.056;15.472;2023-10-13T10:11:00;36.93;;;33.53;;
3211;SDS011;1618;47.056;15.472;2023-10-13T10:13:32;37.73;;;34.33;;
3211;SDS011;1618;47.056;15.472;2023-10-13T10:16:06;37.90;;;34.50;;
3211;SDS011;1618;47.056;15.472;2023-10-13T10:18:40;38.60;;;35.20;;
3211;SDS011;1618;47.056;15.472;2023-10-13T10:21:08;38.95;;;35.63;;
3211;SDS011;1618;47.056;15.472;2023-10-13T10:23:40;39.33;;;35.83;;
3211;SDS011;1618;47.056;15.472;2023-10-13T10:26:09;38.88;;;35.47;;
3211;SDS011;1618;47.056;15.472;2023-10-13T10:28:45;39.08;;;35.58;;
3211;SDS011;1618;47.056;15.472;2023-10-13T10:31:13;37.63;;;34.22;;
3211;SDS011;1618;47.056;15.472;2023-10-13T10:33:45;38.30;;;34.85;;
3211;SDS011;1618;47.056;15.472;2023-10-13T10:36:17;37.65;;;34.35;;
3211;SDS011;1618;47.056;15.472;2023-10-13T10:38:53;39.22;;;35.72;;
3211;SDS011;1618;47.056;15.472;2023-10-13T10:41:29;36.95;;;33.55;;
3211;SDS011;1618;47.056;15.472;2023-10-13T10:44:11;38.47;;;34.97;;
3211;SDS011;1618;47.056;15.472;2023-10-13T10:46:51;38.28;;;34.78;;
3211;SDS011;1618;47.056;15.472;2023-10-13T10:49:23;37.72;;;34.42;;
3211;SDS011;1618;47.056;15.472;2023-10-13T10:51:57;37.67;;;34.28;;
3211;SDS011;1618;47.056;15.472;2023-10-13T10:54:30;39.70;;;36.10;;
3211;SDS011;1618;47.056;15.472;2023-10-13T10:56:58;38.40;;;34.90;;
3211;SDS011;1618;47.056;15.472;2023-10-13T10:59:41;38.78;;;35.28;;
3211;SDS011;1618;47.056;15.472;2023-10-13T11:02:10;38.10;;;34.70;;
3211;SDS011;1618;47.056;15.472;2023-10-13T11:04:40;38.30;;;34.90;;
3211;SDS011;1618;47.056;15.472;2023-10-13T11:07:20;39.25;;;35.75;;
3211;SDS011;1618;47.056;15.472;2023-10-13T11:09:48;38.78;;;35.28;;
3211;SDS011;1618;47.056;15.472;2023-10-13T11:12:19;39.08;;;35.47;;
3211;SDS011;1618;47.056;15.472;2023-10-13T11:15:07;38.13;;;34.53;;
3211;SDS011;1618;47.056;15.472;2023-10-13T11:17:39;38.95;;;35.45;;
3211;SDS011;1618;47.056;15.472;2023-10-13T11:20:16;41.15;;;37.65;;
3211;SDS011;1618;47.056;15.472;2023-10-13T11:22:51;40.03;;;36.42;;
3211;SDS011;1618;47.056;15.472;2023-10-13T11:25:20;39.83;;;36.22;;
3211;SDS011;1618;47.056;15.472;2023-10-13T11:27:56;39.35;;;35.85;;
3211;SDS011;1618;47.056;15.472;2023-10-13T11:30:27;40.53;;;37.13;;
3211;SDS011;1618;47.056;15.472;2023-10-13T11:33:07;40.58;;;37.08;;
3211;SDS011;1618;47.056;15.472;2023-10-13T11:35:36;39.30;;;35.80;;
3211;SDS011;1618;47.056;15.472;2023-10-13T11:38:23;39.15;;;35.65;;
3211;SDS011;1618;47.056;15.472;2023-10-13T11:40:54;38.13;;;34.63;;
3211;SDS011;1618;47.056;15.472;2023-10-13T11:43:41;40.15;;;36.60;;
3211;SDS011;1618;47.056;15.472;2023-10-13T11:46:36;39.40;;;35.88;;
3211;SDS011;1618;47.056;15.472;2023-10-13T11:49:32;39.78;;;36.28;;
3211;SDS011;1618;47.056;15.472;2023-10-13T11:52:06;39.53;;;36.08;;
3211;SDS011;1618;47.056;15.472;2023-10-13T11:54:43;39.33;;;35.83;;
3211;SDS011;1618;47.056;15.472;2023-10-13T11:57:17;38.97;;;35.47;;
3211;SDS011;1618;47.056;15.472;2023-10-13T11:59:47;39.20;;;35.70;;
3211;SDS011;1618;47.056;15.472;2023-10-13T12:02:43;40.08;;;36.67;;
3211;SDS011;1618;47.056;15.472;2023-10-13T12:05:31;40.70;;;37.20;;
3211;SDS011;1618;47.056;15.472;2023-10-13T12:08:15;40.63;;;37.13;;
3211;SDS011;1618;47.056;15.472;2023-10-13T12:10:59;41.17;;;37.58;;
3211;SDS011;1618;47.056;15.472;2023-10-13T12:13:47;41.10;;;37.60;;
3211;SDS011;1618;47.056;15.472;2023-10-13T12:16:17;41.85;;;38.25;;
3211;SDS011;1618;47.056;15.472;2023-10-13T12:18:50;41.85;;;38.35;;
3211;SDS011;1618;47.056;15.472;2023-10-13T12:21:22;43.10;;;39.70;;
3211;SDS011;1618;47.056;15.472;2023-10-13T12:23:49;41.85;;;38.45;;
3211;SDS011;1618;47.056;15.472;2023-10-13T12:26:19;40.45;;;36.95;;
3211;SDS011;1618;47.056;15.472;2023-10-13T12:28:57;41.72;;;38.22;;
3211;SDS011;1618;47.056;15.472;2023-10-13T12:31:31;41.03;;;37.53;;
3211;SDS011;1618;47.056;15.472;2023-10-13T12:34:14;41.78;;;38.28;;
3211;SDS011;1618;47.056;15.472;2023-10-13T12:36:56;39.63;;;36.20;;
3211;SDS011;1618;47.056;15.472;2023-10-13T12:39:33;40.88;;;37.47;;
3211;SDS011;1618;47.056;15.472;2023-10-13T12:42:19;41.30;;;37.90;;
3211;SDS011;1618;47.056;15.472;2023-10-13T12:45:05;40.83;;;37.33;;
3211;SDS011;1618;47.056;15.472;2023-10-13T12:47:51;41.63;;;38.22;;
3211;SDS011;1618;47.056;15.472;2023-10-13T12:50:40;40.97;;;37.58;;
3211;SDS011;1618;47.056;15.472;2023-10-13T12:53:32;39.63;;;36.22;;
3211;SDS011;1618;47.056;15.472;2023-10-13T12:56:02;38.10;;;34.67;;
3211;SDS011;1618;47.056;15.472;2023-10-13T12:58:30;38.30;;;34.80;;
3211;SDS011;1618;47.056;15.472;2023-10-13T13:00:59;37.80;;;34.30;;
3211;SDS011;1618;47.056;15.472;2023-10-13T13:03:32;38.70;;;35.10;;
3211;SDS011;1618;47.056;15.472;2023-10-13T13:06:03;40.65;;;37.25;;
3211;SDS011;1618;47.056;15.472;2023-10-13T13:08:35;38.53;;;35.03;;
3211;SDS011;1618;47.056;15.472;2023-10-13T13:11:09;42.53;;;38.73;;
3211;SDS011;1618;47.056;15.472;2023-10-13T13:13:37;37.60;;;34.10;;
3211;SDS011;1618;47.056;15.472;2023-10-13T13:16:09;40.10;;;36.50;;
3211;SDS011;1618;47.056;15.472;2023-10-13T13:18:38;39.23;;;35.53;;
3211;SDS011;1618;47.056;15.472;2023-10-13T13:21:22;38.87;;;35.27;;
3211;SDS011;1618;47.056;15.472;2023-10-13T13:23:50;39.60;;;35.80;;
3211;SDS011;1618;47.056;15.472;2023-10-13T13:26:21;38.33;;;34.60;;
3211;SDS011;1618;47.056;15.472;2023-10-13T13:28:51;36.90;;;33.20;;
3211;SDS011;1618;47.056;15.472;2023-10-13T13:31:30;37.30;;;33.60;;
3211;SDS011;1618;47.056;15.472;2023-10-13T13:33:58;37.70;;;33.90;;
3211;SDS011;1618;47.056;15.472;2023-10-13T13:36:31;39.50;;;35.70;;
3211;SDS011;1618;47.056;15.472;2023-10-13T13:39:02;38.77;;;35.00;;
3211;SDS011;1618;47.056;15.472;2023-10-13T13:41:32;38.43;;;34.73;;
3211;SDS011;1618;47.056;15.472;2023-10-13T13:44:00;38.27;;;34.60;;
3211;SDS011;1618;47.056;15.472;2023-10-13T13:46:39;37.60;;;34.00;;
3211;SDS011;1618;47.056;15.472;2023-10-13T13:49:08;38.80;;;35.10;;
3211;SDS011;1618;47.056;15.472;2023-10-13T13:51:46;37.57;;;33.97;;
3211;SDS011;1618;47.056;15.472;2023-10-13T13:54:18;36.90;;;33.30;;
3211;SDS011;1618;47.056;15.472;2023-10-13T13:56:46;38.27;;;34.67;;
3211;SDS011;1618;47.056;15.472;2023-10-13T13:59:17;37.40;;;33.80;;
3211;SDS011;1618;47.056;15.472;2023-10-13T14:01:45;37.27;;;33.70;;
3211;SDS011;1618;47.056;15.472;2023-10-13T14:04:14;38.37;;;34.77;;
3211;SDS011;1618;47.056;15.472;2023-10-13T14:06:48;39.33;;;35.73;;
3211;SDS011;1618;47.056;15.472;2023-10-13T14:09:16;38.67;;;35.07;;
3211;SDS011;1618;47.056;15.472;2023-10-13T14:11:58;37.07;;;33.53;;
3211;SDS011;1618;47.056;15.472;2023-10-13T14:14:47;39.63;;;36.03;;
3211;SDS011;1618;47.056;15.472;2023-10-13T14:17:22;38.20;;;34.60;;
3211;SDS011;1618;47.056;15.472;2023-10-13T14:19:59;37.93;;;34.33;;
3211;SDS011;1618;47.056;15.472;2023-10-13T14:22:36;38.67;;;34.97;;
3211;SDS011;1618;47.056;15.472;2023-10-13T14:25:10;38.60;;;34.90;;
3211;SDS011;1618;47.056;15.472;2023-10-13T14:27:45;40.03;;;36.43;;
3211;SDS011;1618;47.056;15.472;2023-10-13T14:30:24;38.10;;;34.40;;
3211;SDS011;1618;47.056;15.472;2023-10-13T14:32:56;37.53;;;33.93;;
3211;SDS011;1618;47.056;15.472;2023-10-13T14:35:26;38.60;;;35.00;;
3211;SDS011;1618;47.056;15.472;2023-10-13T14:37:55;38.83;;;35.23;;
3211;SDS011;1618;47.056;15.472;2023-10-13T14:40:23;37.40;;;33.80;;
3211;SDS011;1618;47.056;15.472;2023-10-13T14:42:52;37.53;;;33.93;;
3211;SDS011;1618;47.056;15.472;2023-10-13T14:45:23;40.00;;;36.30;;
3211;SDS011;1618;47.056;15.472;2023-10-13T14:47:52;37.30;;;33.70;;
3211;SDS011;1618;47.056;15.472;2023-10-13T14:50:19;37.50;;;33.90;;
3211;SDS011;1618;47.056;15.472;2023-10-13T14:52:48;38.70;;;35.10;;
3211;SDS011;1618;47.056;15.472;2023-10-13T14:55:24;37.50;;;34.00;;
3211;SDS011;1618;47.056;15.472;2023-10-13T14:58:04;37.03;;;33.53;;
3211;SDS011;1618;47.056;15.472;2023-10-13T15:00:42;37.30;;;34.00;;
3211;SDS011;1618;47.056;15.472;2023-10-13T15:03:15;36.40;;;33.20;;
3211;SDS011;1618;47.056;15.472;2023-10-13T15:05:44;36.70;;;33.30;;
3211;SDS011;1618;47.056;15.472;2023-10-13T15:08:13;38.63;;;35.23;;
3211;SDS011;1618;47.056;15.472;2023-10-13T15:13:46;36.03;;;32.83;;
3211;SDS011;1618;47.056;15.472;2023-10-13T15:16:15;37.80;;;34.60;;
3211;SDS011;1618;47.056;15.472;2023-10-13T15:18:43;36.27;;;33.17;;
3211;SDS011;1618;47.056;15.472;2023-10-13T15:21:26;37.50;;;34.30;;
3211;SDS011;1618;47.056;15.472;2023-10-13T15:23:59;36.20;;;32.90;;
3211;SDS011;1618;47.056;15.472;2023-10-13T15:26:38;36.03;;;32.83;;
3211;SDS011;1618;47.056;15.472;2023-10-13T15:29:11;37.57;;;34.37;;
3211;SDS011;1618;47.056;15.472;2023-10-13T15:31:41;35.80;;;32.70;;
3211;SDS011;1618;47.056;15.472;2023-10-13T15:34:20;37.93;;;34.83;;